North Attleboro, Massachusetts
Current Conditions -  °F | °C
As of 12:15 AM on Saturday 29 Nov 2014 (Local Time) from KSFZ Reporting Station
Clear Clear  
Wind Chill: 14°   Ceiling: Unl
Heat Index: 21°   Visibility: 10mi
Dew Point: 10°   Wind: 6mph
Humidity: 63%   Direction: 260°W
Pressure: 30.2"   Gusts: NA
Location:  41.98°N, 71.33°W
Report Text: KSFZ 290515Z 26005KT 10SM CLR M06/M12 A3020 RMK AO1
Loading
Personal Weather Stations






























Interactive Weather Map New forecast layout! Learn more

10-Day Weather Forecast

Advertisements
Track Severe Weather on mobile